Tiempo atmosférico en la estación meteorológica de Pedraza de Alba, Salamanca (897 m.)



Fecha
DESCASC
Temp. máxima en grados centígrados (hora)
DESCASC
Temp. mínima en grados centígrados (hora)
DESCASC
Temp. media en grados centígrados
DESCASC
Racha de viento máxima en m/sg (hora)
DESCASC
Velocidad máxima media en intervalos de 10 minutos(hora)
DESCASC
Precipitaciones diarias en mm
DESCASC
Precipitaciones de 00:00 a 06:00 en mm
DESCASC
Precipitaciones de 06:00 a 12:00 en mm
DESCASC
Precipitaciones de 12:00 a 18:00 en mm
DESCASC
Precipitaciones de 18:00 a 24:00 en mm
DESCASC
20-01-2019 7.6 (15:10) -1.3 (23:00) 3.1 8.06 (01:10) 5 (15:30) 7 7 0 0 0
19-01-2019 5.9 (23:30) -3.6 (04:10) 1.2 10.83 (17:00) 5.83 (15:20) 3 0 1 1.8 0.2
18-01-2019 5.5 (15:40) -6.4 (-00:0) -0.5 5 (15:00) 2.5 (15:00) 0 0 0 0 0
17-01-2019 3.4 (17:00) -4 (-00:0) -0.3 4.72 (09:10) 2.5 (14:20) 0.4 0.4 0 0 0
16-01-2019 6.6 (12:50) -3.6 (07:40) 1.5 7.5 (12:20) 3.89 (15:30) 0 0 0 0 0
15-01-2019 6.2 (16:40) -5.5 (-00:0) 0.3 2.5 (14:40) 1.39 (15:00) 0 0 0 0 0
14-01-2019 12.2 (14:00) -5.1 (-00:0) 3.5 6.11 (15:30) 4.17 (15:30) 0 0 0 0 0
13-01-2019 7.3 (16:00) -5.6 (08:50) 0.9 6.39 (13:30) 3.89 (13:50) 0 0 0 0 0
12-01-2019 4.9 (16:30) -2.5 (-00:0) 1.2 8.61 (16:10) 5.28 (15:40) 0 0 0 0 0
11-01-2019 3.1 (16:50) -6.1 (-00:0) -1.5 10 (12:00) 6.39 (12:10) 0 0 0 0 0
10-01-2019 5 (15:20) -2 (-00:0) 1.5 11.67 (11:30) 6.67 (11:30) 0 0 0 0 0
09-01-2019 8.7 (15:10) -4.4 (-00:0) 2.1 9.44 (12:10) 5.28 (11:50) 0 0 0 0 0
08-01-2019 4.6 (15:50) -8.5 (-00:0) -2 5 (14:40) 3.06 (14:40) 0 0 0 0 0
07-01-2019 10.1 (13:40) -8.2 (-00:0) 1 7.78 (13:00) 5 (14:10) 0 0 0 0 0
06-01-2019 9.1 (14:30) -7.7 (-00:0) 0.7 6.11 (16:50) 3.61 (16:00) 0 0 0 0 0
05-01-2019 8.2 (15:10) -7.5 (-00:0) 0.3 3.61 (15:20) 2.5 (15:20) 0 0 0 0 0
04-01-2019 8.3 (15:30) -7 (-00:0) 0.7 2.78 (12:50) 1.67 (12:50) 0 0 0 0 0
03-01-2019 0.8 (16:10) -7.9 (-00:0) -3.6 2.22 (19:10) 1.11 (19:20) 0 0 0 0 0
02-01-2019 7.1 (14:10) -5.5 (-00:0) 0.8 7.22 (13:40) 4.44 (14:40) 0 0 0 0 0
01-01-2019 10.8 (15:20) -4.6 (07:50) 3.1 2.5 (15:20) 1.39 (12:10) 0 0 0 0 0
31-12-2018 10.9 (14:10) -5.9 (-00:0) 2.5 3.89 (14:50) 2.78 (14:40) 0.2 0 0.2 0 0
30-12-2018 9.6 (16:10) -5 (-00:0) 2.3 3.89 (16:10) 2.5 (13:10) 0 0 0 0 0
29-12-2018 8 (15:50) -2 (-00:0) 3 7.78 (15:10) 5 (14:00) 0 0 0 0 0
28-12-2018 6.4 (13:50) 1.5 (20:30) 4 7.22 (23:50) 3.61 (14:20) 0 0 0 0 0
27-12-2018 13 (14:00) -2.7 (-00:0) 5.1 3.61 (16:30) 2.22 (16:30) 0 0 0 0 0
26-12-2018 15.7 (16:30) -1.3 (-00:0) 7.2 5 (13:00) 3.61 (13:50) 0 0 0 0 0
25-12-2018 8.9 (16:40) -0.9 (-00:0) 4 2.78 (14:10) 1.67 (14:10) 0.2 0.2 0 0 0
23-12-2018 12.3 (15:40) -1.3 (-00:0) 5.5 2.5 (15:00) 1.11 (12:50) 0.2 0 0 0.2 0

Gráficas

Temp. máximas Temp. mínimas Temp. medias Precipitaciones Rachas de viento máximas Velocidades máximas media en intervalos de 10 minutos

Datos horarios

Fecha y hora oficial Temperatura (ºC) Velocidad del viento (km/h) Dirección del viento Racha (km/h) Dirección de racha Precipitación (mm) Presión (hPa) Tendencia (hPa) Humedad (%)
2019-01-21 23:00:00 -1.4 2 Sur 8 Sur 0 -- -- 92
2019-01-21 22:00:00 -1.5 4 Sur 9 Sur 0 -- -- 95
2019-01-21 21:00:00 -1.5 3 Sur 5 Sudeste 0 -- -- 92
2019-01-21 20:00:00 -0.1 4 Sur 5 Sur 0 -- -- 90
2019-01-21 19:00:00 2.8 0 Calma 6 Noroeste 0 -- -- 81
2019-01-21 18:00:00 4.7 0 Calma 14 Nordeste 0 -- -- 74
2019-01-21 17:00:00 5.8 4 Norte 14 Norte 0 -- -- 68
2019-01-21 16:00:00 5 5 Norte 16 Norte 0 -- -- 74
2019-01-21 15:00:00 6.2 3 Sur 13 Norte 0 -- -- 70
2019-01-21 14:00:00 4.9 2 Noroeste 10 Nordeste 0 -- -- 78
2019-01-21 13:00:00 4.5 4 Norte 13 Nordeste 0 -- -- 78
2019-01-21 12:00:00 3.4 2 Norte 7 Norte 0 -- -- 83
2019-01-21 11:00:00 3.1 2 Sudoeste 5 Sudoeste 0.2 -- -- 90
2019-01-21 10:00:00 -0.8 0 Calma 5 Sudeste 0 -- -- 100
2019-01-21 09:00:00 -2 0 Calma 5 Sur 0 -- -- 100
2019-01-21 08:00:00 -2.9 3 Sur 8 Sur 0 -- -- 100
2019-01-21 07:00:00 -2.9 2 Sur 5 Sur 0 -- -- 100
2019-01-21 06:00:00 -3 3 Sur 4 Sur 0 -- -- 99
2019-01-21 05:00:00 -2.7 3 Sur 6 Sudeste 0 -- -- 99
2019-01-21 04:00:00 -2.1 2 Sur 5 Sur 0 -- -- 98
2019-01-21 03:00:00 -2.1 3 Sur 5 Sur 0 -- -- 98
2019-01-21 02:00:00 -2 3 Sur 4 Sur 0 -- -- 98
2019-01-21 01:00:00 -1 2 Sur 4 Sur 0 -- -- 94
2019-01-21 00:00:00 -0.1 0 Calma 5 Sur 0 -- -- 98
2019-01-20 23:00:00 -1.3 3 Sur 4 Sur 0 -- -- 96
2019-01-20 22:00:00 -0.6 3 Sur 5 Sur 0 -- -- 96
2019-01-20 21:00:00 0.8 2 Sur 6 Sudeste 0 -- -- 92
2019-01-20 20:00:00 3.6 0 Calma 9 Noroeste 0 -- -- 86
2019-01-20 19:00:00 5.7 5 Noroeste 13 Noroeste 0 -- -- 82
2019-01-20 18:00:00 6.6 7 Noroeste 22 Noroeste 0 -- -- 75
2019-01-20 17:00:00 7.6 14 Norte 23 Noroeste 0 -- -- 65
2019-01-20 16:00:00 7.5 16 Norte 28 Norte 0 -- -- 65
2019-01-20 15:00:00 7.2 15 Norte 25 Norte 0 -- -- 69
2019-01-20 14:00:00 6.4 6 Noroeste 19 Norte 0 -- -- 77
2019-01-20 13:00:00 5.6 11 Norte 20 Noroeste 0 -- -- 78
2019-01-20 12:00:00 4.9 4 Noroeste 10 Noroeste 0 -- -- 87
2019-01-20 11:00:00 3.8 5 Norte 9 Norte 0 -- -- 90
2019-01-20 10:00:00 2.3 3 Nordeste 10 Nordeste 0 -- -- 96
2019-01-20 09:00:00 1.6 0 Calma 6 Nordeste 0 -- -- 98
2019-01-20 08:00:00 1.9 4 Norte 12 Norte 0 -- -- 97
2019-01-20 07:00:00 2.3 8 Norte 20 Norte 0 -- -- 97
2019-01-20 06:00:00 2.8 9 Norte 20 Norte 0 -- -- 97
2019-01-20 05:00:00 3.6 9 Norte 23 Norte 0.2 -- -- 99
2019-01-20 04:00:00 4.9 12 Norte 27 Norte 1.8 -- -- 99
2019-01-20 03:00:00 5.7 5 Sudoeste 14 Oeste 1.2 -- -- 99
2019-01-20 02:00:00 5.5 7 Sudoeste 29 Oeste 2.4 -- -- 98
2019-01-20 01:00:00 5.9 15 Sudoeste 27 Sudoeste 1.4 -- -- 97
2019-01-20 00:00:00 5.9 14 Sudoeste 30 Sudoeste 0 -- -- 97
2019-01-19 23:00:00 5.7 18 Sudoeste 32 Sudoeste 0 -- -- 96
2019-01-19 22:00:00 5.7 18 Sudoeste 33 Sudoeste 0 -- -- 97
2019-01-19 21:00:00 5.4 13 Sudoeste 37 Sudoeste 0 -- -- 95
2019-01-19 20:00:00 4.6 19 Sudoeste 38 Sudoeste 0 -- -- 96
2019-01-19 19:00:00 4.9 19 Sudoeste 36 Sudoeste 0.2 -- -- 96
2019-01-19 18:00:00 4.9 18 Sudoeste 34 Sudoeste 0.2 -- -- 94
2019-01-19 17:00:00 4.8 19 Sudoeste 39 Sudoeste 0 -- -- 94
2019-01-19 16:00:00 4.7 18 Sudoeste 36 Sudoeste 0 -- -- 93
2019-01-19 15:00:00 4.8 20 Sudoeste 38 Sudoeste 0 -- -- 93
2019-01-19 14:00:00 4.8 14 Sudoeste 28 Sudoeste 0.6 -- -- 97
2019-01-19 13:00:00 3.4 12 Sudoeste 27 Sudoeste 1 -- -- 95
2019-01-19 12:00:00 3.1 10 Sudoeste 19 Sudoeste 0.8 -- -- 94
2019-01-19 11:00:00 2.2 5 Sudoeste 13 Sudoeste 0.2 -- -- 95
2019-01-19 10:00:00 0.8 7 Sudoeste 10 Sudoeste 0 -- -- 96
2019-01-19 09:00:00 -0.5 0 Calma 12 Sur 0 -- -- 99
2019-01-19 08:00:00 0 5 Sur 9 Sudoeste 0 -- -- 99
2019-01-19 07:00:00 0 4 Sudoeste 9 Sudoeste 0 -- -- 100
2019-01-19 06:00:00 -0.9 3 Sudoeste 6 Sudoeste 0 -- -- 100
2019-01-19 05:00:00 -2.6 0 Calma 5 Sudeste 0 -- -- 100
2019-01-19 04:00:00 -3.3 2 Sur 5 Sur 0 -- -- 97
2019-01-19 03:00:00 -2 2 Sur 6 Sudeste 0 -- -- 94
2019-01-19 02:00:00 0.4 4 Oeste 6 Oeste 0 -- -- 97
2019-01-19 01:00:00 -0.5 2 Sudoeste 5 Oeste 0 -- -- 98
2019-01-19 00:00:00 -1.2 0 Calma 3 Sur 0 -- -- 97
2019-01-18 23:00:00 0.2 0 Calma 4 Sudoeste 0 -- -- 93
2019-01-18 22:00:00 1.4 0 Calma 5 Sur 0 -- -- 92
2019-01-18 21:00:00 1.4 2 Sur 4 Sur 0 -- -- 93
2019-01-18 20:00:00 1.9 0 Calma 9 Oeste 0 -- -- 87
2019-01-18 19:00:00 2.8 2 Sudoeste 18 Oeste 0 -- -- 83
2019-01-18 18:00:00 4.3 5 Oeste 17 Noroeste 0 -- -- 75
2019-01-18 17:00:00 5 7 Noroeste 15 Oeste 0 -- -- 62
2019-01-18 16:00:00 5.3 7 Oeste 17 Oeste 0 -- -- 61
2019-01-18 15:00:00 5.1 9 Oeste 18 Noroeste 0 -- -- 69
2019-01-18 14:00:00 4.8 6 Sudoeste 14 Sudoeste 0 -- -- 70
2019-01-18 13:00:00 4.1 6 Sudoeste 12 Sudoeste 0 -- -- 71
2019-01-18 12:00:00 2 2 Sudoeste 8 Sudoeste 0 -- -- 83
2019-01-18 11:00:00 -1.2 3 Sur 5 Sur 0 -- -- 98
2019-01-18 10:00:00 -4.3 0 Calma 3 Sur 0 -- -- 98
2019-01-18 09:00:00 -5.2 0 Calma 6 Sudoeste 0 -- -- 94
2019-01-18 08:00:00 -4.6 0 Calma 4 Sur 0 -- -- 96
2019-01-18 07:00:00 -3.7 2 Sur 7 Sur 0 -- -- 95
2019-01-18 06:00:00 -5.4 3 Sur 6 Sur 0 -- -- 100
2019-01-18 05:00:00 -6 0 Calma 2 Sudeste 0 -- -- 97
2019-01-18 04:00:00 -5.7 0 Calma 5 Sur 0 -- -- 97
2019-01-18 03:00:00 -5.9 2 Sur 4 Sur 0 -- -- 95
2019-01-18 02:00:00 -4.9 0 Calma 6 Sur 0 -- -- 98
2019-01-18 01:00:00 -4.2 0 Calma 3 Oeste 0 -- -- 97
2019-01-18 00:00:00 -4 3 Sur 5 Sudeste 0 -- -- 97
2019-01-17 23:00:00 -3.6 0 Calma 5 Sur 0 -- -- 98
2019-01-17 22:00:00 -3.6 3 Sur 5 Sur 0 -- -- 97
2019-01-17 21:00:00 -2.8 4 Sur 5 Sudeste 0 -- -- 96
2019-01-17 20:00:00 -0.8 0 Calma 4 Sur 0 -- -- 91
2019-01-17 19:00:00 2.4 3 Sudeste 12 Este 0 -- -- 88
2019-01-17 18:00:00 3.1 5 Nordeste 11 Nordeste 0 -- -- 90
2019-01-17 17:00:00 3.4 5 Norte 9 Norte 0 -- -- 89
2019-01-17 16:00:00 3 3 Nordeste 13 Nordeste 0 -- -- 92
2019-01-17 15:00:00 2.7 6 Norte 12 Este 0 -- -- 97
2019-01-17 14:00:00 2.5 8 Nordeste 16 Nordeste 0 -- -- 99
2019-01-17 13:00:00 2.6 8 Norte 14 Norte 0 -- -- 98
2019-01-17 12:00:00 2.8 6 Nordeste 14 Norte 0 -- -- 99
2019-01-17 11:00:00 2.7 6 Norte 10 Norte 0 -- -- 100
2019-01-17 10:00:00 2.6 5 Norte 17 Norte 0 -- -- 100
2019-01-17 09:00:00 2.8 8 Norte 14 Norte 0 -- -- 100
2019-01-17 08:00:00 2.9 3 Norte 4 Norte 0 -- -- 99
2019-01-17 07:00:00 2.9 0 Calma 3 Este 0 -- -- 99
2019-01-17 06:00:00 3.1 2 Norte 7 Noroeste 0.2 -- -- 99
2019-01-17 05:00:00 2.9 0 Calma 3 Oeste 0 -- -- 98
2019-01-17 04:00:00 2.6 0 Calma 3 Sudeste 0 -- -- 98
2019-01-17 03:00:00 2.3 0 Calma 3 Sur 0 -- -- 98
2019-01-17 02:00:00 2.1 0 Calma 4 Sudoeste 0.2 -- -- 96
2019-01-17 01:00:00 2.1 0 Calma 3 Sudoeste 0 -- -- 96
2019-01-17 00:00:00 2.1 0 Calma 4 Norte 0 -- -- 95
2019-01-16 23:00:00 1.6 0 Calma 6 Sur 0 -- -- 95
2019-01-16 22:00:00 1.2 0 Calma 7 Sur 0 -- -- 94
2019-01-16 21:00:00 1.3 4 Sudoeste 8 Sudoeste 0 -- -- 94
2019-01-16 20:00:00 1.8 3 Sudoeste 10 Sudeste 0 -- -- 92
2019-01-16 19:00:00 3 0 Calma 9 Sudoeste 0 -- -- 88
2019-01-16 18:00:00 4.6 7 Sudoeste 12 Sudoeste 0 -- -- 86
2019-01-16 17:00:00 5.6 8 Sudoeste 16 Sudoeste 0 -- -- 82
2019-01-16 16:00:00 6.2 9 Sudoeste 23 Sudoeste 0 -- -- 80
2019-01-16 15:00:00 5.6 11 Sudoeste 22 Oeste 0 -- -- 83
2019-01-16 14:00:00 5.9 8 Sudoeste 21 Sudoeste 0 -- -- 81
2019-01-16 13:00:00 6.4 9 Oeste 27 Sudoeste 0 -- -- 78